sensor_id;sensor_type;location;lat;lon;timestamp;P1;durP1;ratioP1;P2;durP2;ratioP2
3561;SDS011;1795;52.074;4.754;2022-08-21T00:00:29;4.18;;;2.85;;
3561;SDS011;1795;52.074;4.754;2022-08-21T00:02:59;5.88;;;2.65;;
3561;SDS011;1795;52.074;4.754;2022-08-21T00:05:35;6.00;;;3.17;;
3561;SDS011;1795;52.074;4.754;2022-08-21T00:08:05;7.57;;;2.70;;
3561;SDS011;1795;52.074;4.754;2022-08-21T00:10:35;7.10;;;3.03;;
3561;SDS011;1795;52.074;4.754;2022-08-21T00:13:03;6.80;;;2.83;;
3561;SDS011;1795;52.074;4.754;2022-08-21T00:15:33;5.13;;;2.95;;
3561;SDS011;1795;52.074;4.754;2022-08-21T00:18:03;6.32;;;3.08;;
3561;SDS011;1795;52.074;4.754;2022-08-21T00:20:32;8.27;;;2.92;;
3561;SDS011;1795;52.074;4.754;2022-08-21T00:23:01;5.47;;;2.83;;
3561;SDS011;1795;52.074;4.754;2022-08-21T00:25:29;7.20;;;2.78;;
3561;SDS011;1795;52.074;4.754;2022-08-21T00:27:59;7.47;;;3.10;;
3561;SDS011;1795;52.074;4.754;2022-08-21T00:30:28;5.50;;;2.42;;
3561;SDS011;1795;52.074;4.754;2022-08-21T00:32:56;4.57;;;2.55;;
3561;SDS011;1795;52.074;4.754;2022-08-21T00:35:27;4.68;;;2.40;;
3561;SDS011;1795;52.074;4.754;2022-08-21T00:37:57;9.50;;;3.17;;
3561;SDS011;1795;52.074;4.754;2022-08-21T00:40:26;10.80;;;3.15;;
3561;SDS011;1795;52.074;4.754;2022-08-21T00:43:00;5.18;;;2.70;;
3561;SDS011;1795;52.074;4.754;2022-08-21T00:45:29;6.00;;;2.70;;
3561;SDS011;1795;52.074;4.754;2022-08-21T00:47:58;7.05;;;2.60;;
3561;SDS011;1795;52.074;4.754;2022-08-21T00:50:27;4.65;;;2.90;;
3561;SDS011;1795;52.074;4.754;2022-08-21T00:52:59;5.43;;;2.50;;
3561;SDS011;1795;52.074;4.754;2022-08-21T00:55:28;5.45;;;2.78;;
3561;SDS011;1795;52.074;4.754;2022-08-21T00:58:01;7.22;;;2.47;;
3561;SDS011;1795;52.074;4.754;2022-08-21T01:00:36;4.40;;;2.50;;
3561;SDS011;1795;52.074;4.754;2022-08-21T01:03:08;7.83;;;3.30;;
3561;SDS011;1795;52.074;4.754;2022-08-21T01:05:39;6.25;;;2.50;;
3561;SDS011;1795;52.074;4.754;2022-08-21T01:08:08;4.90;;;2.30;;
3561;SDS011;1795;52.074;4.754;2022-08-21T01:10:38;6.57;;;2.90;;
3561;SDS011;1795;52.074;4.754;2022-08-21T01:13:09;7.53;;;2.85;;
3561;SDS011;1795;52.074;4.754;2022-08-21T01:15:39;4.63;;;2.00;;
3561;SDS011;1795;52.074;4.754;2022-08-21T01:18:11;7.45;;;2.60;;
3561;SDS011;1795;52.074;4.754;2022-08-21T01:20:42;3.35;;;2.10;;
3561;SDS011;1795;52.074;4.754;2022-08-21T01:23:12;4.40;;;2.05;;
3561;SDS011;1795;52.074;4.754;2022-08-21T01:25:41;4.85;;;2.42;;
3561;SDS011;1795;52.074;4.754;2022-08-21T01:28:11;4.40;;;2.27;;
3561;SDS011;1795;52.074;4.754;2022-08-21T01:30:42;7.72;;;3.00;;
3561;SDS011;1795;52.074;4.754;2022-08-21T01:33:10;6.50;;;2.20;;
3561;SDS011;1795;52.074;4.754;2022-08-21T01:35:38;6.30;;;2.50;;
3561;SDS011;1795;52.074;4.754;2022-08-21T01:38:06;6.40;;;2.70;;
3561;SDS011;1795;52.074;4.754;2022-08-21T01:40:36;6.80;;;2.60;;
3561;SDS011;1795;52.074;4.754;2022-08-21T01:43:04;4.22;;;2.47;;
3561;SDS011;1795;52.074;4.754;2022-08-21T01:45:32;9.00;;;2.90;;
3561;SDS011;1795;52.074;4.754;2022-08-21T01:48:00;4.25;;;2.22;;
3561;SDS011;1795;52.074;4.754;2022-08-21T01:50:29;5.25;;;2.60;;
3561;SDS011;1795;52.074;4.754;2022-08-21T01:52:57;6.05;;;2.65;;
3561;SDS011;1795;52.074;4.754;2022-08-21T01:55:25;5.80;;;2.40;;
3561;SDS011;1795;52.074;4.754;2022-08-21T01:57:55;9.63;;;3.03;;
3561;SDS011;1795;52.074;4.754;2022-08-21T02:00:25;8.57;;;2.40;;
3561;SDS011;1795;52.074;4.754;2022-08-21T02:02:53;5.25;;;2.40;;
3561;SDS011;1795;52.074;4.754;2022-08-21T02:05:24;6.63;;;2.80;;
3561;SDS011;1795;52.074;4.754;2022-08-21T02:08:00;8.50;;;2.95;;
3561;SDS011;1795;52.074;4.754;2022-08-21T02:10:30;6.68;;;2.80;;
3561;SDS011;1795;52.074;4.754;2022-08-21T02:13:00;4.60;;;2.28;;
3561;SDS011;1795;52.074;4.754;2022-08-21T02:15:28;10.38;;;3.05;;
3561;SDS011;1795;52.074;4.754;2022-08-21T02:17:58;8.65;;;2.65;;
3561;SDS011;1795;52.074;4.754;2022-08-21T02:20:29;6.83;;;2.80;;
3561;SDS011;1795;52.074;4.754;2022-08-21T02:23:01;4.60;;;2.50;;
3561;SDS011;1795;52.074;4.754;2022-08-21T02:25:30;5.80;;;2.70;;
3561;SDS011;1795;52.074;4.754;2022-08-21T02:28:02;5.35;;;2.70;;
3561;SDS011;1795;52.074;4.754;2022-08-21T02:30:33;7.53;;;2.40;;
3561;SDS011;1795;52.074;4.754;2022-08-21T02:33:04;4.93;;;2.20;;
3561;SDS011;1795;52.074;4.754;2022-08-21T02:35:32;5.65;;;2.85;;
3561;SDS011;1795;52.074;4.754;2022-08-21T02:38:02;6.82;;;2.95;;
3561;SDS011;1795;52.074;4.754;2022-08-21T02:40:39;7.90;;;2.80;;
3561;SDS011;1795;52.074;4.754;2022-08-21T02:43:15;8.65;;;2.72;;
3561;SDS011;1795;52.074;4.754;2022-08-21T02:45:44;7.47;;;2.80;;
3561;SDS011;1795;52.074;4.754;2022-08-21T02:48:14;6.53;;;2.42;;
3561;SDS011;1795;52.074;4.754;2022-08-21T02:50:45;7.47;;;2.60;;
3561;SDS011;1795;52.074;4.754;2022-08-21T02:53:15;6.43;;;2.80;;
3561;SDS011;1795;52.074;4.754;2022-08-21T02:55:44;5.93;;;2.60;;
3561;SDS011;1795;52.074;4.754;2022-08-21T02:58:15;9.63;;;3.20;;
3561;SDS011;1795;52.074;4.754;2022-08-21T03:00:45;5.95;;;2.30;;
3561;SDS011;1795;52.074;4.754;2022-08-21T03:03:13;7.32;;;3.00;;
3561;SDS011;1795;52.074;4.754;2022-08-21T03:05:41;7.90;;;3.08;;
3561;SDS011;1795;52.074;4.754;2022-08-21T03:08:12;6.32;;;2.30;;
3561;SDS011;1795;52.074;4.754;2022-08-21T03:10:42;4.50;;;2.70;;
3561;SDS011;1795;52.074;4.754;2022-08-21T03:13:13;12.20;;;2.50;;
3561;SDS011;1795;52.074;4.754;2022-08-21T03:15:43;7.70;;;2.50;;
3561;SDS011;1795;52.074;4.754;2022-08-21T03:18:11;8.90;;;3.00;;
3561;SDS011;1795;52.074;4.754;2022-08-21T03:20:40;6.80;;;3.00;;
3561;SDS011;1795;52.074;4.754;2022-08-21T03:23:11;6.03;;;2.35;;
3561;SDS011;1795;52.074;4.754;2022-08-21T03:25:44;7.88;;;2.75;;
3561;SDS011;1795;52.074;4.754;2022-08-21T03:28:15;7.38;;;2.10;;
3561;SDS011;1795;52.074;4.754;2022-08-21T03:30:46;5.57;;;2.10;;
3561;SDS011;1795;52.074;4.754;2022-08-21T03:33:15;5.15;;;2.25;;
3561;SDS011;1795;52.074;4.754;2022-08-21T03:35:50;6.80;;;2.40;;
3561;SDS011;1795;52.074;4.754;2022-08-21T03:38:24;5.70;;;2.00;;
3561;SDS011;1795;52.074;4.754;2022-08-21T03:40:53;8.60;;;2.40;;
3561;SDS011;1795;52.074;4.754;2022-08-21T03:43:22;6.60;;;2.40;;
3561;SDS011;1795;52.074;4.754;2022-08-21T03:45:50;5.78;;;1.95;;
3561;SDS011;1795;52.074;4.754;2022-08-21T03:48:18;8.88;;;2.20;;
3561;SDS011;1795;52.074;4.754;2022-08-21T03:50:47;6.07;;;2.40;;
3561;SDS011;1795;52.074;4.754;2022-08-21T03:53:15;5.90;;;2.00;;
3561;SDS011;1795;52.074;4.754;2022-08-21T03:55:44;7.55;;;2.03;;
3561;SDS011;1795;52.074;4.754;2022-08-21T03:58:14;8.10;;;2.40;;
3561;SDS011;1795;52.074;4.754;2022-08-21T04:00:44;6.70;;;2.27;;
3561;SDS011;1795;52.074;4.754;2022-08-21T04:03:13;7.10;;;2.40;;
3561;SDS011;1795;52.074;4.754;2022-08-21T04:05:41;7.38;;;2.30;;
3561;SDS011;1795;52.074;4.754;2022-08-21T04:08:12;7.50;;;2.35;;
3561;SDS011;1795;52.074;4.754;2022-08-21T04:10:40;7.82;;;2.20;;
3561;SDS011;1795;52.074;4.754;2022-08-21T04:13:09;6.10;;;2.30;;
3561;SDS011;1795;52.074;4.754;2022-08-21T04:15:38;7.55;;;2.10;;
3561;SDS011;1795;52.074;4.754;2022-08-21T04:18:08;10.10;;;2.20;;
3561;SDS011;1795;52.074;4.754;2022-08-21T04:20:36;8.00;;;1.92;;
3561;SDS011;1795;52.074;4.754;2022-08-21T04:23:04;6.13;;;2.60;;
3561;SDS011;1795;52.074;4.754;2022-08-21T04:25:32;7.07;;;2.60;;
3561;SDS011;1795;52.074;4.754;2022-08-21T04:28:01;8.60;;;2.30;;
3561;SDS011;1795;52.074;4.754;2022-08-21T04:30:30;7.22;;;2.60;;
3561;SDS011;1795;52.074;4.754;2022-08-21T04:32:58;7.75;;;2.78;;
3561;SDS011;1795;52.074;4.754;2022-08-21T04:35:27;6.90;;;2.23;;
3561;SDS011;1795;52.074;4.754;2022-08-21T04:37:56;4.72;;;1.83;;
3561;SDS011;1795;52.074;4.754;2022-08-21T04:40:25;5.80;;;2.40;;
3561;SDS011;1795;52.074;4.754;2022-08-21T04:42:56;7.68;;;2.33;;
3561;SDS011;1795;52.074;4.754;2022-08-21T04:45:28;7.22;;;1.80;;
3561;SDS011;1795;52.074;4.754;2022-08-21T04:47:59;7.88;;;2.33;;
3561;SDS011;1795;52.074;4.754;2022-08-21T04:50:33;8.73;;;2.78;;
3561;SDS011;1795;52.074;4.754;2022-08-21T04:53:05;7.07;;;2.60;;
3561;SDS011;1795;52.074;4.754;2022-08-21T04:55:35;7.20;;;2.57;;
3561;SDS011;1795;52.074;4.754;2022-08-21T04:58:04;9.48;;;2.70;;
3561;SDS011;1795;52.074;4.754;2022-08-21T05:00:34;4.57;;;1.90;;
3561;SDS011;1795;52.074;4.754;2022-08-21T05:03:02;8.30;;;2.45;;
3561;SDS011;1795;52.074;4.754;2022-08-21T05:05:35;7.72;;;2.20;;
3561;SDS011;1795;52.074;4.754;2022-08-21T05:08:03;4.00;;;2.28;;
3561;SDS011;1795;52.074;4.754;2022-08-21T05:10:34;9.00;;;2.88;;
3561;SDS011;1795;52.074;4.754;2022-08-21T05:13:02;4.50;;;2.00;;
3561;SDS011;1795;52.074;4.754;2022-08-21T05:15:31;9.00;;;2.40;;
3561;SDS011;1795;52.074;4.754;2022-08-21T05:17:59;5.55;;;2.38;;
3561;SDS011;1795;52.074;4.754;2022-08-21T05:20:27;6.13;;;2.50;;
3561;SDS011;1795;52.074;4.754;2022-08-21T05:22:57;10.65;;;2.83;;
3561;SDS011;1795;52.074;4.754;2022-08-21T05:25:25;7.50;;;2.60;;
3561;SDS011;1795;52.074;4.754;2022-08-21T05:27:55;7.28;;;2.35;;
3561;SDS011;1795;52.074;4.754;2022-08-21T05:30:26;6.35;;;2.00;;
3561;SDS011;1795;52.074;4.754;2022-08-21T05:32:55;9.85;;;2.50;;
3561;SDS011;1795;52.074;4.754;2022-08-21T05:35:25;5.40;;;2.40;;
3561;SDS011;1795;52.074;4.754;2022-08-21T05:37:54;7.00;;;2.70;;
3561;SDS011;1795;52.074;4.754;2022-08-21T05:40:24;9.10;;;3.08;;
3561;SDS011;1795;52.074;4.754;2022-08-21T05:42:53;11.65;;;2.60;;
3561;SDS011;1795;52.074;4.754;2022-08-21T05:45:23;9.45;;;2.80;;
3561;SDS011;1795;52.074;4.754;2022-08-21T05:48:09;10.80;;;2.80;;
3561;SDS011;1795;52.074;4.754;2022-08-21T05:50:39;10.27;;;2.85;;
3561;SDS011;1795;52.074;4.754;2022-08-21T05:53:09;9.20;;;3.60;;
3561;SDS011;1795;52.074;4.754;2022-08-21T05:55:37;13.63;;;3.63;;
3561;SDS011;1795;52.074;4.754;2022-08-21T05:58:11;11.05;;;3.97;;
3561;SDS011;1795;52.074;4.754;2022-08-21T06:00:40;7.10;;;3.50;;
3561;SDS011;1795;52.074;4.754;2022-08-21T06:03:12;12.32;;;3.30;;
3561;SDS011;1795;52.074;4.754;2022-08-21T06:05:43;11.05;;;3.50;;
3561;SDS011;1795;52.074;4.754;2022-08-21T06:08:13;9.68;;;3.22;;
3561;SDS011;1795;52.074;4.754;2022-08-21T06:10:41;10.13;;;3.20;;
3561;SDS011;1795;52.074;4.754;2022-08-21T06:13:10;10.13;;;3.70;;
3561;SDS011;1795;52.074;4.754;2022-08-21T06:15:38;12.80;;;3.45;;
3561;SDS011;1795;52.074;4.754;2022-08-21T06:18:06;11.93;;;3.50;;
3561;SDS011;1795;52.074;4.754;2022-08-21T06:20:35;12.82;;;3.30;;
3561;SDS011;1795;52.074;4.754;2022-08-21T06:23:03;13.55;;;3.95;;
3561;SDS011;1795;52.074;4.754;2022-08-21T06:25:33;11.43;;;3.95;;
3561;SDS011;1795;52.074;4.754;2022-08-21T06:28:01;15.20;;;4.05;;
3561;SDS011;1795;52.074;4.754;2022-08-21T06:30:30;13.40;;;3.20;;
3561;SDS011;1795;52.074;4.754;2022-08-21T06:32:58;15.77;;;3.65;;
3561;SDS011;1795;52.074;4.754;2022-08-21T06:35:27;7.75;;;3.05;;
3561;SDS011;1795;52.074;4.754;2022-08-21T06:37:56;9.02;;;3.80;;
3561;SDS011;1795;52.074;4.754;2022-08-21T06:40:24;10.90;;;3.40;;
3561;SDS011;1795;52.074;4.754;2022-08-21T06:42:56;10.45;;;2.85;;
3561;SDS011;1795;52.074;4.754;2022-08-21T06:45:26;14.15;;;3.95;;
3561;SDS011;1795;52.074;4.754;2022-08-21T06:47:57;8.38;;;3.72;;
3561;SDS011;1795;52.074;4.754;2022-08-21T06:50:26;11.00;;;3.40;;
3561;SDS011;1795;52.074;4.754;2022-08-21T06:53:00;9.07;;;3.80;;
3561;SDS011;1795;52.074;4.754;2022-08-21T06:55:31;8.43;;;3.50;;
3561;SDS011;1795;52.074;4.754;2022-08-21T06:58:01;15.30;;;4.05;;
3561;SDS011;1795;52.074;4.754;2022-08-21T07:00:30;8.85;;;3.80;;
3561;SDS011;1795;52.074;4.754;2022-08-21T07:02:58;11.00;;;3.70;;
3561;SDS011;1795;52.074;4.754;2022-08-21T07:05:26;8.95;;;3.92;;
3561;SDS011;1795;52.074;4.754;2022-08-21T07:07:56;15.70;;;3.60;;
3561;SDS011;1795;52.074;4.754;2022-08-21T07:10:24;12.57;;;3.75;;
3561;SDS011;1795;52.074;4.754;2022-08-21T07:12:53;7.70;;;3.40;;
3561;SDS011;1795;52.074;4.754;2022-08-21T07:15:28;16.98;;;3.60;;
3561;SDS011;1795;52.074;4.754;2022-08-21T07:17:57;14.23;;;3.53;;
3561;SDS011;1795;52.074;4.754;2022-08-21T07:20:25;13.48;;;3.90;;
3561;SDS011;1795;52.074;4.754;2022-08-21T07:22:53;10.13;;;3.00;;
3561;SDS011;1795;52.074;4.754;2022-08-21T07:25:23;15.80;;;3.90;;
3561;SDS011;1795;52.074;4.754;2022-08-21T07:27:50;11.60;;;3.00;;
3561;SDS011;1795;52.074;4.754;2022-08-21T07:30:18;10.18;;;3.00;;
3561;SDS011;1795;52.074;4.754;2022-08-21T07:32:50;10.83;;;3.20;;
3561;SDS011;1795;52.074;4.754;2022-08-21T07:35:19;9.32;;;3.00;;
3561;SDS011;1795;52.074;4.754;2022-08-21T07:37:48;10.07;;;2.60;;
3561;SDS011;1795;52.074;4.754;2022-08-21T07:40:16;8.70;;;2.90;;
3561;SDS011;1795;52.074;4.754;2022-08-21T07:42:46;10.05;;;2.67;;
3561;SDS011;1795;52.074;4.754;2022-08-21T07:45:16;9.93;;;3.17;;
3561;SDS011;1795;52.074;4.754;2022-08-21T07:47:45;11.95;;;3.30;;
3561;SDS011;1795;52.074;4.754;2022-08-21T07:50:14;11.27;;;3.00;;
3561;SDS011;1795;52.074;4.754;2022-08-21T07:52:42;12.27;;;3.60;;
3561;SDS011;1795;52.074;4.754;2022-08-21T07:55:12;12.38;;;3.60;;
3561;SDS011;1795;52.074;4.754;2022-08-21T07:57:42;11.80;;;3.35;;
3561;SDS011;1795;52.074;4.754;2022-08-21T08:00:11;13.95;;;3.38;;
3561;SDS011;1795;52.074;4.754;2022-08-21T08:02:43;11.18;;;2.65;;
3561;SDS011;1795;52.074;4.754;2022-08-21T08:05:12;8.10;;;2.73;;
3561;SDS011;1795;52.074;4.754;2022-08-21T08:07:43;10.30;;;3.00;;
3561;SDS011;1795;52.074;4.754;2022-08-21T08:10:11;9.98;;;2.80;;
3561;SDS011;1795;52.074;4.754;2022-08-21T08:12:40;9.25;;;3.00;;
3561;SDS011;1795;52.074;4.754;2022-08-21T08:15:12;10.30;;;2.53;;
3561;SDS011;1795;52.074;4.754;2022-08-21T08:17:42;10.50;;;2.60;;
3561;SDS011;1795;52.074;4.754;2022-08-21T08:20:11;7.57;;;2.60;;
3561;SDS011;1795;52.074;4.754;2022-08-21T08:22:41;10.27;;;2.78;;
3561;SDS011;1795;52.074;4.754;2022-08-21T08:25:15;12.52;;;3.05;;
3561;SDS011;1795;52.074;4.754;2022-08-21T08:27:44;9.98;;;3.20;;
3561;SDS011;1795;52.074;4.754;2022-08-21T08:30:13;10.37;;;2.80;;
3561;SDS011;1795;52.074;4.754;2022-08-21T08:32:42;14.80;;;3.15;;
3561;SDS011;1795;52.074;4.754;2022-08-21T08:35:11;8.35;;;2.65;;
3561;SDS011;1795;52.074;4.754;2022-08-21T08:37:42;10.90;;;3.20;;
3561;SDS011;1795;52.074;4.754;2022-08-21T08:40:18;10.50;;;2.80;;
3561;SDS011;1795;52.074;4.754;2022-08-21T08:42:51;12.57;;;2.70;;
3561;SDS011;1795;52.074;4.754;2022-08-21T08:45:20;8.75;;;2.88;;
3561;SDS011;1795;52.074;4.754;2022-08-21T08:47:52;7.75;;;2.50;;
3561;SDS011;1795;52.074;4.754;2022-08-21T08:50:25;6.85;;;2.50;;
3561;SDS011;1795;52.074;4.754;2022-08-21T08:53:05;12.05;;;3.40;;
3561;SDS011;1795;52.074;4.754;2022-08-21T08:55:34;12.02;;;2.72;;
3561;SDS011;1795;52.074;4.754;2022-08-21T08:58:05;11.52;;;2.90;;
3561;SDS011;1795;52.074;4.754;2022-08-21T09:00:34;9.32;;;2.83;;
3561;SDS011;1795;52.074;4.754;2022-08-21T09:03:02;13.00;;;2.88;;
3561;SDS011;1795;52.074;4.754;2022-08-21T09:05:37;10.80;;;3.00;;
3561;SDS011;1795;52.074;4.754;2022-08-21T09:08:15;8.43;;;3.00;;
3561;SDS011;1795;52.074;4.754;2022-08-21T09:10:58;9.73;;;2.90;;
3561;SDS011;1795;52.074;4.754;2022-08-21T09:13:34;6.13;;;2.35;;
3561;SDS011;1795;52.074;4.754;2022-08-21T09:16:13;11.07;;;2.90;;
3561;SDS011;1795;52.074;4.754;2022-08-21T09:18:52;8.57;;;2.63;;
3561;SDS011;1795;52.074;4.754;2022-08-21T09:21:28;9.93;;;2.93;;
3561;SDS011;1795;52.074;4.754;2022-08-21T09:24:10;13.07;;;3.00;;
3561;SDS011;1795;52.074;4.754;2022-08-21T09:27:02;8.38;;;2.90;;
3561;SDS011;1795;52.074;4.754;2022-08-21T09:29:33;12.48;;;2.97;;
3561;SDS011;1795;52.074;4.754;2022-08-21T09:32:09;13.60;;;3.73;;
3561;SDS011;1795;52.074;4.754;2022-08-21T09:34:54;11.30;;;2.40;;
3561;SDS011;1795;52.074;4.754;2022-08-21T09:37:24;7.72;;;2.60;;
3561;SDS011;1795;52.074;4.754;2022-08-21T09:39:56;8.43;;;2.80;;
3561;SDS011;1795;52.074;4.754;2022-08-21T09:42:26;8.15;;;2.55;;
3561;SDS011;1795;52.074;4.754;2022-08-21T09:45:05;9.27;;;3.30;;
3561;SDS011;1795;52.074;4.754;2022-08-21T09:47:40;7.50;;;3.30;;
3561;SDS011;1795;52.074;4.754;2022-08-21T09:50:10;9.18;;;2.70;;
3561;SDS011;1795;52.074;4.754;2022-08-21T09:52:44;5.43;;;2.40;;
3561;SDS011;1795;52.074;4.754;2022-08-21T09:55:20;6.38;;;2.47;;
3561;SDS011;1795;52.074;4.754;2022-08-21T09:58:10;7.20;;;2.30;;
3561;SDS011;1795;52.074;4.754;2022-08-21T10:00:38;14.30;;;3.30;;
3561;SDS011;1795;52.074;4.754;2022-08-21T10:03:14;6.80;;;2.30;;
3561;SDS011;1795;52.074;4.754;2022-08-21T10:05:51;7.72;;;1.85;;
3561;SDS011;1795;52.074;4.754;2022-08-21T10:08:23;9.63;;;2.17;;
3561;SDS011;1795;52.074;4.754;2022-08-21T10:10:54;8.00;;;2.47;;
3561;SDS011;1795;52.074;4.754;2022-08-21T10:13:27;4.57;;;2.13;;
3561;SDS011;1795;52.074;4.754;2022-08-21T10:16:07;6.70;;;2.00;;
3561;SDS011;1795;52.074;4.754;2022-08-21T10:18:43;6.03;;;1.88;;
3561;SDS011;1795;52.074;4.754;2022-08-21T10:21:17;4.22;;;1.80;;
3561;SDS011;1795;52.074;4.754;2022-08-21T10:23:51;6.82;;;1.70;;
3561;SDS011;1795;52.074;4.754;2022-08-21T10:26:41;5.38;;;1.73;;
3561;SDS011;1795;52.074;4.754;2022-08-21T10:29:22;5.33;;;1.70;;
3561;SDS011;1795;52.074;4.754;2022-08-21T10:32:03;5.17;;;2.03;;
3561;SDS011;1795;52.074;4.754;2022-08-21T10:34:53;8.80;;;2.25;;
3561;SDS011;1795;52.074;4.754;2022-08-21T10:37:31;4.43;;;1.52;;
3561;SDS011;1795;52.074;4.754;2022-08-21T10:40:11;6.00;;;1.80;;
3561;SDS011;1795;52.074;4.754;2022-08-21T10:42:52;5.50;;;1.60;;
3561;SDS011;1795;52.074;4.754;2022-08-21T10:45:42;8.02;;;2.05;;
3561;SDS011;1795;52.074;4.754;2022-08-21T10:48:19;7.43;;;2.13;;
3561;SDS011;1795;52.074;4.754;2022-08-21T10:50:54;8.57;;;2.00;;
3561;SDS011;1795;52.074;4.754;2022-08-21T10:53:30;8.82;;;1.73;;
3561;SDS011;1795;52.074;4.754;2022-08-21T10:56:12;11.05;;;2.00;;
3561;SDS011;1795;52.074;4.754;2022-08-21T10:58:47;6.47;;;2.05;;
3561;SDS011;1795;52.074;4.754;2022-08-21T11:01:25;9.05;;;2.58;;
3561;SDS011;1795;52.074;4.754;2022-08-21T11:04:01;5.03;;;1.70;;
3561;SDS011;1795;52.074;4.754;2022-08-21T11:06:39;6.20;;;2.10;;
3561;SDS011;1795;52.074;4.754;2022-08-21T11:09:14;5.85;;;1.95;;
3561;SDS011;1795;52.074;4.754;2022-08-21T11:11:46;7.93;;;2.20;;
3561;SDS011;1795;52.074;4.754;2022-08-21T11:14:39;5.97;;;2.10;;
3561;SDS011;1795;52.074;4.754;2022-08-21T11:17:16;6.05;;;1.70;;
3561;SDS011;1795;52.074;4.754;2022-08-21T11:19:50;7.00;;;2.15;;
3561;SDS011;1795;52.074;4.754;2022-08-21T11:22:21;4.85;;;1.80;;
3561;SDS011;1795;52.074;4.754;2022-08-21T11:24:54;4.45;;;1.80;;
3561;SDS011;1795;52.074;4.754;2022-08-21T11:27:28;6.07;;;2.00;;
3561;SDS011;1795;52.074;4.754;2022-08-21T11:30:03;7.97;;;1.80;;
3561;SDS011;1795;52.074;4.754;2022-08-21T11:32:39;6.90;;;1.90;;
3561;SDS011;1795;52.074;4.754;2022-08-21T11:35:19;5.53;;;2.00;;
3561;SDS011;1795;52.074;4.754;2022-08-21T11:38:01;11.90;;;2.40;;
3561;SDS011;1795;52.074;4.754;2022-08-21T11:40:42;7.25;;;1.70;;
3561;SDS011;1795;52.074;4.754;2022-08-21T11:43:21;5.10;;;1.98;;
3561;SDS011;1795;52.074;4.754;2022-08-21T11:46:03;5.68;;;1.85;;
3561;SDS011;1795;52.074;4.754;2022-08-21T11:48:47;5.18;;;1.60;;
3561;SDS011;1795;52.074;4.754;2022-08-21T11:51:22;7.93;;;2.00;;
3561;SDS011;1795;52.074;4.754;2022-08-21T11:53:57;7.07;;;1.80;;
3561;SDS011;1795;52.074;4.754;2022-08-21T11:56:33;6.67;;;1.90;;
3561;SDS011;1795;52.074;4.754;2022-08-21T11:59:07;4.75;;;1.70;;
3561;SDS011;1795;52.074;4.754;2022-08-21T12:01:40;3.47;;;1.73;;
3561;SDS011;1795;52.074;4.754;2022-08-21T12:04:17;4.68;;;1.85;;
3561;SDS011;1795;52.074;4.754;2022-08-21T12:06:51;5.10;;;1.70;;
3561;SDS011;1795;52.074;4.754;2022-08-21T12:09:28;6.20;;;1.60;;
3561;SDS011;1795;52.074;4.754;2022-08-21T12:12:01;6.65;;;1.40;;
3561;SDS011;1795;52.074;4.754;2022-08-21T12:14:35;7.10;;;1.80;;
3561;SDS011;1795;52.074;4.754;2022-08-21T12:17:07;6.60;;;1.90;;
3561;SDS011;1795;52.074;4.754;2022-08-21T12:19:38;5.93;;;1.70;;
3561;SDS011;1795;52.074;4.754;2022-08-21T12:22:11;5.37;;;1.60;;
3561;SDS011;1795;52.074;4.754;2022-08-21T12:24:41;5.85;;;1.60;;
3561;SDS011;1795;52.074;4.754;2022-08-21T12:27:23;5.60;;;1.92;;
3561;SDS011;1795;52.074;4.754;2022-08-21T12:29:56;5.68;;;1.90;;
3561;SDS011;1795;52.074;4.754;2022-08-21T12:32:31;4.68;;;1.70;;
3561;SDS011;1795;52.074;4.754;2022-08-21T12:35:15;7.70;;;2.00;;
3561;SDS011;1795;52.074;4.754;2022-08-21T12:37:52;4.25;;;1.50;;
3561;SDS011;1795;52.074;4.754;2022-08-21T12:40:28;5.50;;;1.90;;
3561;SDS011;1795;52.074;4.754;2022-08-21T12:42:59;9.50;;;2.08;;
3561;SDS011;1795;52.074;4.754;2022-08-21T12:45:30;5.15;;;1.80;;
3561;SDS011;1795;52.074;4.754;2022-08-21T12:48:02;6.63;;;2.10;;
3561;SDS011;1795;52.074;4.754;2022-08-21T12:50:36;10.18;;;2.08;;
3561;SDS011;1795;52.074;4.754;2022-08-21T12:53:15;5.68;;;1.98;;
3561;SDS011;1795;52.074;4.754;2022-08-21T12:55:51;6.28;;;1.60;;
3561;SDS011;1795;52.074;4.754;2022-08-21T12:58:20;5.87;;;1.50;;
3561;SDS011;1795;52.074;4.754;2022-08-21T13:00:49;4.53;;;1.60;;
3561;SDS011;1795;52.074;4.754;2022-08-21T13:03:21;7.22;;;1.77;;
3561;SDS011;1795;52.074;4.754;2022-08-21T13:05:50;4.72;;;1.85;;
3561;SDS011;1795;52.074;4.754;2022-08-21T13:08:21;6.30;;;2.15;;
3561;SDS011;1795;52.074;4.754;2022-08-21T13:10:55;4.43;;;1.70;;
3561;SDS011;1795;52.074;4.754;2022-08-21T13:13:36;4.77;;;1.27;;
3561;SDS011;1795;52.074;4.754;2022-08-21T13:16:17;4.85;;;1.50;;
3561;SDS011;1795;52.074;4.754;2022-08-21T13:18:56;5.28;;;1.52;;
3561;SDS011;1795;52.074;4.754;2022-08-21T13:21:27;3.78;;;1.50;;
3561;SDS011;1795;52.074;4.754;2022-08-21T13:24:08;3.40;;;1.40;;
3561;SDS011;1795;52.074;4.754;2022-08-21T13:27:00;4.45;;;1.77;;
3561;SDS011;1795;52.074;4.754;2022-08-21T13:29:31;5.25;;;1.48;;
3561;SDS011;1795;52.074;4.754;2022-08-21T13:32:06;6.80;;;1.60;;
3561;SDS011;1795;52.074;4.754;2022-08-21T13:34:36;3.00;;;1.50;;
3561;SDS011;1795;52.074;4.754;2022-08-21T13:37:06;5.33;;;1.77;;
3561;SDS011;1795;52.074;4.754;2022-08-21T13:39:35;4.97;;;1.67;;
3561;SDS011;1795;52.074;4.754;2022-08-21T13:42:08;2.72;;;1.30;;
3561;SDS011;1795;52.074;4.754;2022-08-21T13:44:41;6.85;;;1.88;;
3561;SDS011;1795;52.074;4.754;2022-08-21T13:47:10;6.30;;;1.63;;
3561;SDS011;1795;52.074;4.754;2022-08-21T13:49:42;3.90;;;1.60;;
3561;SDS011;1795;52.074;4.754;2022-08-21T13:52:13;4.50;;;1.70;;
3561;SDS011;1795;52.074;4.754;2022-08-21T13:54:43;4.60;;;1.40;;
3561;SDS011;1795;52.074;4.754;2022-08-21T13:57:18;6.50;;;1.60;;
3561;SDS011;1795;52.074;4.754;2022-08-21T13:59:51;2.90;;;1.20;;
3561;SDS011;1795;52.074;4.754;2022-08-21T14:02:20;4.68;;;1.40;;
3561;SDS011;1795;52.074;4.754;2022-08-21T14:04:52;3.42;;;1.52;;
3561;SDS011;1795;52.074;4.754;2022-08-21T14:07:26;5.80;;;1.40;;
3561;SDS011;1795;52.074;4.754;2022-08-21T14:10:00;3.90;;;1.60;;
3561;SDS011;1795;52.074;4.754;2022-08-21T14:12:29;4.07;;;1.80;;
3561;SDS011;1795;52.074;4.754;2022-08-21T14:15:02;5.40;;;1.45;;
3561;SDS011;1795;52.074;4.754;2022-08-21T14:17:32;6.03;;;1.45;;
3561;SDS011;1795;52.074;4.754;2022-08-21T14:20:05;4.43;;;1.40;;
3561;SDS011;1795;52.074;4.754;2022-08-21T14:22:36;5.85;;;1.50;;
3561;SDS011;1795;52.074;4.754;2022-08-21T14:25:08;2.92;;;1.20;;
3561;SDS011;1795;52.074;4.754;2022-08-21T14:27:40;5.57;;;2.00;;
3561;SDS011;1795;52.074;4.754;2022-08-21T14:30:12;5.30;;;1.48;;
3561;SDS011;1795;52.074;4.754;2022-08-21T14:32:45;4.80;;;1.70;;
3561;SDS011;1795;52.074;4.754;2022-08-21T14:35:14;3.37;;;1.40;;
3561;SDS011;1795;52.074;4.754;2022-08-21T14:37:48;4.90;;;1.77;;
3561;SDS011;1795;52.074;4.754;2022-08-21T14:40:17;7.23;;;1.90;;
3561;SDS011;1795;52.074;4.754;2022-08-21T14:42:46;5.00;;;1.30;;
3561;SDS011;1795;52.074;4.754;2022-08-21T14:45:16;3.50;;;1.58;;
3561;SDS011;1795;52.074;4.754;2022-08-21T14:47:52;6.32;;;2.00;;
3561;SDS011;1795;52.074;4.754;2022-08-21T14:50:21;6.10;;;1.80;;
3561;SDS011;1795;52.074;4.754;2022-08-21T14:52:53;3.35;;;1.48;;
3561;SDS011;1795;52.074;4.754;2022-08-21T14:55:21;5.97;;;1.80;;
3561;SDS011;1795;52.074;4.754;2022-08-21T14:57:50;4.40;;;1.77;;
3561;SDS011;1795;52.074;4.754;2022-08-21T15:00:20;5.10;;;1.73;;
3561;SDS011;1795;52.074;4.754;2022-08-21T15:03:00;6.72;;;1.90;;
3561;SDS011;1795;52.074;4.754;2022-08-21T15:05:30;2.92;;;1.40;;
3561;SDS011;1795;52.074;4.754;2022-08-21T15:07:59;3.65;;;1.65;;
3561;SDS011;1795;52.074;4.754;2022-08-21T15:10:27;3.40;;;1.30;;
3561;SDS011;1795;52.074;4.754;2022-08-21T15:12:58;5.45;;;1.60;;
3561;SDS011;1795;52.074;4.754;2022-08-21T15:15:27;7.88;;;1.70;;
3561;SDS011;1795;52.074;4.754;2022-08-21T15:17:55;7.75;;;1.58;;
3561;SDS011;1795;52.074;4.754;2022-08-21T15:20:23;5.72;;;1.70;;
3561;SDS011;1795;52.074;4.754;2022-08-21T15:22:53;4.55;;;1.60;;
3561;SDS011;1795;52.074;4.754;2022-08-21T15:25:21;7.15;;;2.13;;
3561;SDS011;1795;52.074;4.754;2022-08-21T15:27:49;8.18;;;1.70;;
3561;SDS011;1795;52.074;4.754;2022-08-21T15:30:18;7.63;;;2.10;;
3561;SDS011;1795;52.074;4.754;2022-08-21T15:32:46;5.20;;;1.90;;
3561;SDS011;1795;52.074;4.754;2022-08-21T15:35:14;6.03;;;1.55;;
3561;SDS011;1795;52.074;4.754;2022-08-21T15:37:42;3.67;;;1.52;;
3561;SDS011;1795;52.074;4.754;2022-08-21T15:40:11;8.63;;;2.20;;